Time;durP1;ratioP1;P1;durP2;ratioP2;P2;SDS_P1;SDS_P2;PMS_P1;PMS_P2;Temp;Humidity;BMP_temperature;BMP_pressure;BME280_temperature;BME280_humidity;BME280_pressure;Samples;Min_cycle;Max_cycle;Signal;HPM_P1;HPM_P2
2023/01/22 00:01:53;;;;;;;;;;;;;;;20.39;36.08;103262.06;7262448;19;153290;-77
2023/01/22 00:04:20;;;;;;;;;;;;;;;20.39;36.08;103259.25;7260880;19;153533;-76
2023/01/22 00:06:47;;;;;;;;;;;;;;;20.40;36.20;103261.78;7258040;19;154005;-76
2023/01/22 00:09:14;;;;;;;;;;;;;;;20.41;35.81;103265.44;7259013;19;155390;-76
2023/01/22 00:11:42;;;;;;;;;;;;;;;20.42;36.48;103261.53;7256046;19;153472;-76
2023/01/22 00:14:09;;;;;;;;;;;;;;;20.43;36.05;103257.63;7258191;19;154031;-76
2023/01/22 00:16:36;;;;;;;;;;;;;;;20.40;36.10;103247.75;7264804;19;154603;-75
2023/01/22 00:19:03;;;;;;;;;;;;;;;20.41;36.34;103252.25;7257327;19;155642;-76
2023/01/22 00:21:30;;;;;;;;;;;;;;;20.41;36.96;103246.63;7256648;19;153860;-75
2023/01/22 00:23:57;;;;;;;;;;;;;;;20.42;36.88;103244.69;7259564;19;153301;-75
2023/01/22 00:26:24;;;;;;;;;;;;;;;20.41;36.81;103240.16;7257569;19;153929;-75
2023/01/22 00:28:51;;;;;;;;;;;;;;;20.38;37.02;103235.06;7259546;19;154328;-75
2023/01/22 00:31:19;;;;;;;;;;;;;;;20.37;36.87;103237.03;7258965;19;153148;-75
2023/01/22 00:33:46;;;;;;;;;;;;;;;20.37;36.61;103238.97;7261036;19;154121;-75
2023/01/22 00:36:14;;;;;;;;;;;;;;;20.34;37.00;103236.69;7261418;19;155458;-75
2023/01/22 00:38:41;;;;;;;;;;;;;;;20.31;37.06;103237.16;7267334;19;153764;-75
2023/01/22 00:41:09;;;;;;;;;;;;;;;20.29;36.69;103234.59;7259672;19;154792;-75
2023/01/22 00:43:37;;;;;;;;;;;;;;;20.25;36.85;103239.00;7259503;19;153927;-75
2023/01/22 00:46:06;;;;;;;;;;;;;;;20.24;36.73;103233.63;7264838;19;153221;-75
2023/01/22 00:48:34;;;;;;;;;;;;;;;20.19;36.86;103239.13;7258594;19;155024;-75
2023/01/22 00:51:01;;;;;;;;;;;;;;;20.17;36.88;103236.56;7260878;19;153229;-75
2023/01/22 00:53:28;;;;;;;;;;;;;;;20.16;36.96;103237.69;7255368;19;154506;-75
2023/01/22 00:55:56;;;;;;;;;;;;;;;20.18;37.44;103243.91;7256232;19;154010;-74
2023/01/22 00:58:24;;;;;;;;;;;;;;;20.15;37.14;103236.00;7262941;19;154012;-74
2023/01/22 01:00:52;;;;;;;;;;;;;;;20.18;37.35;103243.91;7263403;19;156581;-74
2023/01/22 01:05:49;;;;;;;;;;;;;;;20.18;37.46;103241.09;7256721;19;155417;-75
2023/01/22 01:08:17;;;;;;;;;;;;;;;20.16;37.42;103239.66;7259217;19;154977;-75
2023/01/22 01:10:44;;;;;;;;;;;;;;;20.14;37.37;103236.22;7257122;19;153888;-75
2023/01/22 01:13:11;;;;;;;;;;;;;;;20.13;37.32;103237.31;7257045;19;154723;-74
2023/01/22 01:15:38;;;;;;;;;;;;;;;20.11;37.08;103234.78;7255882;19;153710;-75
2023/01/22 01:18:07;;;;;;;;;;;;;;;20.07;37.18;103238.34;7257140;19;154141;-74
2023/01/22 01:20:34;;;;;;;;;;;;;;;20.05;37.49;103235.78;7258229;19;154394;-75
2023/01/22 01:23:01;;;;;;;;;;;;;;;20.02;37.50;103227.00;7262274;19;154292;-76
2023/01/22 01:25:28;;;;;;;;;;;;;;;19.99;37.71;103228.34;7257487;19;153559;-74
2023/01/22 01:27:55;;;;;;;;;;;;;;;19.95;37.73;103222.38;7256346;19;154168;-75
2023/01/22 01:30:23;;;;;;;;;;;;;;;19.93;37.89;103232.16;7257158;19;153498;-74
2023/01/22 01:32:50;;;;;;;;;;;;;;;19.88;37.50;103224.50;7255881;19;154263;-75
2023/01/22 01:35:18;;;;;;;;;;;;;;;19.86;37.59;103228.63;7252659;19;155873;-75
2023/01/22 01:37:45;;;;;;;;;;;;;;;19.82;37.94;103221.81;7252249;19;153549;-75
2023/01/22 01:40:12;;;;;;;;;;;;;;;19.79;37.73;103226.00;7254353;19;154433;-74
2023/01/22 01:42:41;;;;;;;;;;;;;;;19.75;37.82;103232.34;7253196;19;153322;-75
2023/01/22 01:45:11;;;;;;;;;;;;;;;19.72;37.74;103235.63;7262054;19;154406;-74
2023/01/22 01:47:38;;;;;;;;;;;;;;;19.69;37.95;103230.50;7254285;19;154751;-74
2023/01/22 01:50:05;;;;;;;;;;;;;;;19.66;38.06;103231.03;7257501;19;154718;-74
2023/01/22 01:52:33;;;;;;;;;;;;;;;19.64;37.90;103250.03;7261082;19;153304;-75
2023/01/22 01:55:01;;;;;;;;;;;;;;;19.59;38.25;103242.34;7253718;19;154029;-74
2023/01/22 01:57:31;;;;;;;;;;;;;;;19.56;38.15;103242.00;7253819;19;153254;-75
2023/01/22 01:59:59;;;;;;;;;;;;;;;19.51;38.04;103240.78;7258069;19;153589;-75
2023/01/22 02:02:27;;;;;;;;;;;;;;;19.48;38.36;103238.50;7254775;19;154303;-74
2023/01/22 02:04:54;;;;;;;;;;;;;;;19.44;38.45;103234.44;7262900;19;155318;-75
2023/01/22 02:07:21;;;;;;;;;;;;;;;19.42;38.44;103238.56;7268844;19;154050;-74
2023/01/22 02:09:48;;;;;;;;;;;;;;;19.39;38.16;103247.47;7259391;19;153514;-75
2023/01/22 02:12:15;;;;;;;;;;;;;;;19.35;38.59;103249.06;7262390;19;153909;-75
2023/01/22 02:14:43;;;;;;;;;;;;;;;19.30;38.33;103243.34;7258603;19;153710;-76
2023/01/22 02:17:10;;;;;;;;;;;;;;;19.27;38.33;103249.41;7263228;19;155618;-76
2023/01/22 02:19:38;;;;;;;;;;;;;;;19.23;38.51;103248.19;7262572;19;153619;-75
2023/01/22 02:22:08;;;;;;;;;;;;;;;19.19;38.38;103244.19;7265169;19;154129;-76
2023/01/22 02:24:35;;;;;;;;;;;;;;;19.15;38.44;103242.97;7266611;19;154539;-76
2023/01/22 02:27:03;;;;;;;;;;;;;;;19.12;38.40;103241.53;7270570;19;153917;-76
2023/01/22 02:29:30;;;;;;;;;;;;;;;19.10;38.59;103243.69;7264215;19;154636;-76
2023/01/22 02:31:57;;;;;;;;;;;;;;;19.06;38.88;103248.94;7266609;19;154749;-76
2023/01/22 02:34:23;;;;;;;;;;;;;;;19.03;38.67;103245.78;7264699;19;157353;-76
2023/01/22 02:36:50;;;;;;;;;;;;;;;19.00;38.80;103243.44;7262484;19;154337;-74
2023/01/22 02:39:17;;;;;;;;;;;;;;;18.96;38.86;103242.22;7261022;19;156143;-75
2023/01/22 02:41:44;;;;;;;;;;;;;;;18.92;39.13;103241.00;7255521;19;154144;-74
2023/01/22 02:44:12;;;;;;;;;;;;;;;18.88;38.94;103240.63;7261005;19;153940;-74
2023/01/22 02:46:39;;;;;;;;;;;;;;;18.83;39.20;103242.44;7260722;19;153423;-75
2023/01/22 02:49:06;;;;;;;;;;;;;;;18.82;38.82;103250.00;7267095;19;156037;-74
2023/01/22 02:51:33;;;;;;;;;;;;;;;18.79;38.91;103244.88;7263386;19;153898;-74
2023/01/22 02:54:00;;;;;;;;;;;;;;;18.74;39.24;103241.09;7260549;19;153552;-74
2023/01/22 02:56:26;;;;;;;;;;;;;;;18.68;39.13;103237.28;7258569;19;153276;-74
2023/01/22 02:58:53;;;;;;;;;;;;;;;18.67;39.19;103233.63;7263716;19;152608;-74
2023/01/22 03:01:22;;;;;;;;;;;;;;;18.67;38.98;103230.84;7261239;19;153453;-75
2023/01/22 03:03:50;;;;;;;;;;;;;;;18.61;39.44;103234.63;7262435;19;153963;-74
2023/01/22 03:08:48;;;;;;;;;;;;;;;18.57;39.15;103239.00;7259220;19;155379;-75
2023/01/22 03:11:15;;;;;;;;;;;;;;;18.56;39.45;103247.63;7268084;19;153937;-75
2023/01/22 03:21:14;;;;;;;;;;;;;;;18.46;39.53;103252.91;7261558;19;154315;-75
2023/01/22 03:23:42;;;;;;;;;;;;;;;18.45;39.53;103240.00;7259739;19;154198;-74
2023/01/22 03:26:09;;;;;;;;;;;;;;;18.43;39.40;103234.66;7258742;19;154209;-74
2023/01/22 03:28:36;;;;;;;;;;;;;;;18.41;39.34;103241.56;7260509;19;155365;-74
2023/01/22 03:31:03;;;;;;;;;;;;;;;18.38;39.70;103245.72;7261949;19;154459;-73
2023/01/22 03:33:31;;;;;;;;;;;;;;;18.38;39.92;103242.91;7270864;19;153614;-73
2023/01/22 03:35:58;;;;;;;;;;;;;;;18.34;40.03;103249.22;7261790;19;153900;-74
2023/01/22 03:38:25;;;;;;;;;;;;;;;18.33;39.92;103247.50;7262865;19;154380;-73
2023/01/22 03:40:52;;;;;;;;;;;;;;;18.32;39.96;103240.19;7260464;19;153808;-73
2023/01/22 03:43:19;;;;;;;;;;;;;;;18.28;39.96;103241.75;7261277;19;154307;-73
2023/01/22 03:45:46;;;;;;;;;;;;;;;18.26;40.01;103241.16;7256976;19;153241;-73
2023/01/22 03:48:13;;;;;;;;;;;;;;;18.21;40.23;103244.69;7263341;19;154827;-74
2023/01/22 03:50:40;;;;;;;;;;;;;;;18.20;40.27;103240.16;7260257;19;153751;-75
2023/01/22 03:53:07;;;;;;;;;;;;;;;18.17;40.34;103243.41;7261837;19;153949;-74
2023/01/22 03:55:34;;;;;;;;;;;;;;;18.15;40.05;103240.88;7266472;19;154737;-75
2023/01/22 03:58:01;;;;;;;;;;;;;;;18.13;40.27;103233.78;7262082;19;153962;-75
2023/01/22 04:00:28;;;;;;;;;;;;;;;18.12;40.31;103234.91;7259991;19;154214;-75
2023/01/22 04:02:55;;;;;;;;;;;;;;;18.08;40.17;103237.28;7259395;19;154615;-76
2023/01/22 04:05:22;;;;;;;;;;;;;;;18.05;40.48;103245.31;7262263;19;153388;-74
2023/01/22 04:07:49;;;;;;;;;;;;;;;18.03;40.42;103234.38;7260627;19;155000;-76
2023/01/22 04:10:16;;;;;;;;;;;;;;;18.03;40.36;103234.38;7260901;19;152129;-75
2023/01/22 04:12:43;;;;;;;;;;;;;;;18.00;40.63;103239.56;7260865;19;153139;-75
2023/01/22 04:15:11;;;;;;;;;;;;;;;17.96;40.94;103236.38;7260737;19;154964;-75
2023/01/22 04:17:38;;;;;;;;;;;;;;;17.94;40.86;103229.34;7271273;19;154199;-75
2023/01/22 04:20:05;;;;;;;;;;;;;;;17.92;40.56;103223.97;7261034;19;154499;-75
2023/01/22 04:22:32;;;;;;;;;;;;;;;17.93;40.94;103225.69;7259802;19;153725;-76
2023/01/22 04:24:59;;;;;;;;;;;;;;;17.93;40.59;103227.63;7260678;19;153869;-75
2023/01/22 04:27:26;;;;;;;;;;;;;;;17.90;40.99;103228.09;7257060;19;153518;-75
2023/01/22 04:29:53;;;;;;;;;;;;;;;17.90;40.43;103230.91;7262546;19;153073;-75
2023/01/22 04:32:20;;;;;;;;;;;;;;;17.85;40.69;103228.81;7259736;19;154441;-75
2023/01/22 04:34:47;;;;;;;;;;;;;;;17.83;40.51;103230.13;7255745;19;157144;-76
2023/01/22 04:37:14;;;;;;;;;;;;;;;17.83;40.48;103230.97;7262645;19;154674;-75
2023/01/22 04:39:41;;;;;;;;;;;;;;;17.80;40.59;103230.59;7256937;19;155635;-74
2023/01/22 04:42:09;;;;;;;;;;;;;;;17.79;40.63;103232.53;7257886;19;154631;-75
2023/01/22 04:44:36;;;;;;;;;;;;;;;17.78;40.90;103230.81;7257903;19;153912;-74
2023/01/22 04:47:03;;;;;;;;;;;;;;;17.76;40.68;103231.03;7257308;19;155369;-75
2023/01/22 04:49:30;;;;;;;;;;;;;;;17.75;40.61;103223.78;7260582;19;154179;-75
2023/01/22 04:51:57;;;;;;;;;;;;;;;17.74;40.69;103226.78;7256393;19;153675;-74
2023/01/22 04:54:24;;;;;;;;;;;;;;;17.70;40.86;103228.34;7254148;19;154180;-75
2023/01/22 04:56:51;;;;;;;;;;;;;;;17.69;40.48;103233.09;7256077;19;152159;-74
2023/01/22 04:59:18;;;;;;;;;;;;;;;17.66;40.60;103233.56;7263929;19;154365;-75
2023/01/22 05:01:45;;;;;;;;;;;;;;;17.67;40.73;103231.63;7258093;19;153781;-75
2023/01/22 05:04:12;;;;;;;;;;;;;;;17.66;40.46;103230.75;7258832;19;154025;-75
2023/01/22 05:06:39;;;;;;;;;;;;;;;17.63;40.61;103231.22;7254321;19;154293;-75
2023/01/22 05:09:06;;;;;;;;;;;;;;;17.62;40.48;103237.06;7253961;19;153257;-75
2023/01/22 05:11:34;;;;;;;;;;;;;;;17.59;40.55;103232.75;7254956;19;155411;-74
2023/01/22 05:14:01;;;;;;;;;;;;;;;17.56;40.92;103223.97;7254663;19;153063;-74
2023/01/22 05:16:28;;;;;;;;;;;;;;;17.54;40.43;103226.97;7253355;19;153375;-74
2023/01/22 05:18:54;;;;;;;;;;;;;;;17.50;40.88;103233.28;7254999;19;154772;-74
2023/01/22 05:21:21;;;;;;;;;;;;;;;17.52;40.86;103236.69;7261265;19;153320;-74
2023/01/22 05:23:48;;;;;;;;;;;;;;;17.49;40.60;103234.38;7255996;19;154226;-75
2023/01/22 05:26:16;;;;;;;;;;;;;;;17.46;40.84;103232.03;7252740;19;153940;-75
2023/01/22 05:28:43;;;;;;;;;;;;;;;17.45;40.97;103230.31;7256499;19;152617;-75
2023/01/22 05:31:10;;;;;;;;;;;;;;;17.45;40.73;103233.09;7256687;19;155099;-74
2023/01/22 05:33:39;;;;;;;;;;;;;;;17.41;41.05;103235.50;7258326;19;154227;-75
2023/01/22 05:36:08;;;;;;;;;;;;;;;17.40;41.04;103232.97;7256717;19;154254;-73
2023/01/22 05:38:35;;;;;;;;;;;;;;;17.37;40.78;103239.00;7251068;19;153708;-75
2023/01/22 05:41:02;;;;;;;;;;;;;;;17.37;40.94;103233.41;7247778;19;156065;-74
2023/01/22 05:43:29;;;;;;;;;;;;;;;17.35;40.92;103240.09;7260175;19;153602;-75
2023/01/22 05:45:59;;;;;;;;;;;;;;;17.32;41.02;103236.91;7255000;19;153530;-74
2023/01/22 05:48:26;;;;;;;;;;;;;;;17.32;40.76;103236.91;7254677;19;156079;-75
2023/01/22 05:50:53;;;;;;;;;;;;;;;17.30;41.18;103237.16;7252766;19;154016;-75
2023/01/22 05:53:20;;;;;;;;;;;;;;;17.28;40.84;103235.66;7252727;19;154004;-74
2023/01/22 05:55:47;;;;;;;;;;;;;;;17.25;40.97;103242.56;7251086;19;153092;-75
2023/01/22 05:58:14;;;;;;;;;;;;;;;17.22;41.10;103248.59;7256421;19;153309;-75
2023/01/22 06:00:41;;;;;;;;;;;;;;;17.23;40.72;103244.72;7251496;19;153567;-75
2023/01/22 06:03:08;;;;;;;;;;;;;;;17.19;40.86;103243.50;7253399;19;154039;-74
2023/01/22 06:05:35;;;;;;;;;;;;;;;17.18;41.13;103247.34;7260485;19;153303;-75
2023/01/22 06:08:02;;;;;;;;;;;;;;;17.17;40.89;103242.84;7254211;19;153827;-76
2023/01/22 06:10:29;;;;;;;;;;;;;;;17.17;40.96;103233.66;7251870;19;154274;-75
2023/01/22 06:12:56;;;;;;;;;;;;;;;17.15;40.94;103239.44;7251507;19;154556;-75
2023/01/22 06:15:23;;;;;;;;;;;;;;;17.13;41.24;103236.00;7252654;19;153507;-75
2023/01/22 06:17:50;;;;;;;;;;;;;;;17.10;41.17;103235.63;7252772;19;154068;-74
2023/01/22 06:20:17;;;;;;;;;;;;;;;17.10;41.00;103238.41;7253304;19;157733;-75
2023/01/22 06:22:44;;;;;;;;;;;;;;;17.04;41.07;103230.94;7253667;19;153650;-74
2023/01/22 06:25:11;;;;;;;;;;;;;;;17.03;40.92;103232.06;7256022;19;153464;-75
2023/01/22 06:27:38;;;;;;;;;;;;;;;17.01;41.17;103223.03;7259696;19;153882;-75
2023/01/22 06:30:05;;;;;;;;;;;;;;;16.99;41.24;103223.25;7256846;19;153432;-75
2023/01/22 06:32:32;;;;;;;;;;;;;;;16.99;41.41;103223.25;7253748;19;153710;-75
2023/01/22 06:34:59;;;;;;;;;;;;;;;16.99;41.50;103216.84;7253576;19;152759;-75
2023/01/22 06:37:26;;;;;;;;;;;;;;;16.94;41.15;103214.75;7252561;19;153531;-74
2023/01/22 06:39:53;;;;;;;;;;;;;;;16.97;41.30;103213.41;7249736;19;156936;-75
2023/01/22 06:42:20;;;;;;;;;;;;;;;16.98;41.28;103224.38;7247556;19;154783;-75
2023/01/22 06:44:49;;;;;;;;;;;;;;;16.94;41.50;103233.44;7252430;19;152911;-74
2023/01/22 06:47:16;;;;;;;;;;;;;;;16.96;41.22;103231.25;7257233;19;154444;-74
2023/01/22 06:49:43;;;;;;;;;;;;;;;16.93;41.26;103229.78;7252379;19;153498;-74
2023/01/22 06:52:10;;;;;;;;;;;;;;;16.95;41.33;103226.75;7257607;19;154130;-75
2023/01/22 06:54:37;;;;;;;;;;;;;;;16.98;41.44;103224.38;7259946;19;152395;-75
2023/01/22 06:57:04;;;;;;;;;;;;;;;17.00;41.83;103226.91;7258164;19;154508;-75
2023/01/22 07:02:18;;;;;;;;;;;;;;;17.09;41.75;103225.53;7261684;19;154684;-75
2023/01/22 07:04:45;;;;;;;;;;;;;;;17.12;41.56;103225.94;7262662;19;153624;-76
2023/01/22 07:07:13;;;;;;;;;;;;;;;17.16;41.55;103232.78;7259795;19;153923;-75
2023/01/22 07:09:40;;;;;;;;;;;;;;;17.22;41.74;103234.63;7264823;19;154015;-76
2023/01/22 07:12:07;;;;;;;;;;;;;;;17.26;42.04;103238.69;7259641;19;154673;-76
2023/01/22 07:14:34;;;;;;;;;;;;;;;17.31;41.93;103247.22;7258212;19;153793;-76
2023/01/22 07:17:03;;;;;;;;;;;;;;;17.37;41.98;103244.59;7262243;19;155750;-75
2023/01/22 07:19:44;;;;;;;;;;;;;;;17.44;41.93;103248.19;7253856;19;153715;-76
2023/01/22 07:22:10;;;;;;;;;;;;;;;17.50;42.08;103255.63;7258955;19;153125;-75
2023/01/22 07:24:51;;;;;;;;;;;;;;;17.56;41.84;103251.91;7257789;19;152851;-75
2023/01/22 07:27:18;;;;;;;;;;;;;;;17.60;41.75;103250.41;7261152;19;154831;-75
2023/01/22 07:29:46;;;;;;;;;;;;;;;17.66;41.96;103246.69;7259768;19;155108;-75
2023/01/22 07:32:13;;;;;;;;;;;;;;;17.71;42.25;103250.50;7265452;19;154496;-75
2023/01/22 07:34:40;;;;;;;;;;;;;;;17.77;42.23;103254.28;7258817;19;152815;-75
2023/01/22 07:37:07;;;;;;;;;;;;;;;17.83;42.25;103256.13;7258434;19;152968;-75
2023/01/22 07:39:34;;;;;;;;;;;;;;;17.88;42.07;103256.28;7259378;19;154886;-75
2023/01/22 07:42:01;;;;;;;;;;;;;;;17.97;42.19;103266.06;7249605;19;152335;-74
2023/01/22 07:44:28;;;;;;;;;;;;;;;18.01;41.74;103264.50;7259801;19;155722;-75
2023/01/22 07:46:55;;;;;;;;;;;;;;;18.07;41.65;103273.91;7256152;19;153554;-76
2023/01/22 07:49:22;;;;;;;;;;;;;;;18.12;41.56;103265.69;7259011;19;154756;-75
2023/01/22 07:51:49;;;;;;;;;;;;;;;18.16;41.61;103261.31;7255833;19;153738;-76
2023/01/22 07:54:16;;;;;;;;;;;;;;;18.20;41.40;103266.19;7262552;19;155576;-76
2023/01/22 07:56:44;;;;;;;;;;;;;;;18.27;41.07;103259.63;7255688;19;153266;-76
2023/01/22 07:59:12;;;;;;;;;;;;;;;18.31;41.00;103258.06;7256991;19;152349;-76
2023/01/22 08:01:38;;;;;;;;;;;;;;;18.37;41.52;103259.94;7259068;19;153838;-74
2023/01/22 08:04:06;;;;;;;;;;;;;;;18.41;41.35;103264.81;7257154;19;154916;-75
2023/01/22 08:06:33;;;;;;;;;;;;;;;18.46;41.27;103259.38;7256442;19;153889;-75
2023/01/22 08:08:59;;;;;;;;;;;;;;;18.52;41.03;103265.97;7256410;19;154032;-74
2023/01/22 08:11:26;;;;;;;;;;;;;;;18.57;41.02;103260.53;7253796;19;153361;-74
2023/01/22 08:13:54;;;;;;;;;;;;;;;18.62;40.52;103275.50;7258545;19;154870;-74
2023/01/22 08:16:21;;;;;;;;;;;;;;;18.67;40.20;103269.19;7263789;19;154324;-74
2023/01/22 08:18:48;;;;;;;;;;;;;;;18.72;40.69;103268.47;7253903;19;154645;-74
2023/01/22 08:21:15;;;;;;;;;;;;;;;18.77;40.24;103275.06;7256336;19;155820;-74
2023/01/22 08:23:42;;;;;;;;;;;;;;;18.83;40.56;103278.84;7257176;19;154332;-75
2023/01/22 08:26:14;;;;;;;;;;;;;;;18.88;40.08;103284.59;7256031;19;152916;-75
2023/01/22 08:28:41;;;;;;;;;;;;;;;18.91;39.92;103287.75;7257420;19;153189;-74
2023/01/22 08:31:08;;;;;;;;;;;;;;;18.96;40.04;103295.44;7257629;19;155840;-74
2023/01/22 08:33:52;;;;;;;;;;;;;;;19.01;40.21;103295.59;7254372;19;153701;-74
2023/01/22 08:36:19;;;;;;;;;;;;;;;19.06;40.22;103298.50;7268360;19;153928;-74
2023/01/22 08:38:45;;;;;;;;;;;;;;;19.10;39.74;103295.00;7252567;19;154167;-74
2023/01/22 08:41:14;;;;;;;;;;;;;;;19.15;39.96;103313.03;7256570;19;154295;-74
2023/01/22 08:43:41;;;;;;;;;;;;;;;19.18;39.44;103301.31;7256411;19;154894;-77
2023/01/22 08:46:08;;;;;;;;;;;;;;;19.23;39.79;103301.44;7256346;19;152911;-76
2023/01/22 08:48:35;;;;;;;;;;;;;;;19.27;39.71;103299.88;7259935;19;154168;-76
2023/01/22 08:51:02;;;;;;;;;;;;;;;19.32;39.43;103305.59;7259438;19;152558;-76
2023/01/22 08:53:30;;;;;;;;;;;;;;;19.34;39.20;103301.47;7254300;19;156291;-76
2023/01/22 08:55:57;;;;;;;;;;;;;;;19.37;39.40;103309.38;7255925;19;153426;-76
2023/01/22 08:58:26;;;;;;;;;;;;;;;19.41;38.78;103312.56;7259908;19;155483;-76
2023/01/22 09:00:54;;;;;;;;;;;;;;;19.44;39.13;103314.94;7256812;19;154049;-76
2023/01/22 09:03:21;;;;;;;;;;;;;;;19.45;38.96;103323.06;7254039;19;154457;-76
2023/01/22 09:05:49;;;;;;;;;;;;;;;19.48;38.87;103311.38;7253272;19;154319;-75
2023/01/22 09:08:16;;;;;;;;;;;;;;;19.49;38.39;103321.47;7256508;19;153303;-75
2023/01/22 09:10:43;;;;;;;;;;;;;;;19.52;38.70;103311.75;7253642;19;153845;-74
2023/01/22 09:13:10;;;;;;;;;;;;;;;19.52;38.32;103312.59;7251299;19;157587;-73
2023/01/22 09:15:39;;;;;;;;;;;;;;;19.54;38.47;103320.75;7255479;19;153398;-74
2023/01/22 09:18:05;;;;;;;;;;;;;;;19.52;38.70;103318.22;7254722;19;153313;-74
2023/01/22 09:20:32;;;;;;;;;;;;;;;19.54;38.60;103317.94;7265137;19;154856;-73
2023/01/22 09:22:59;;;;;;;;;;;;;;;19.52;38.40;103325.78;7255956;19;154351;-74
2023/01/22 09:25:26;;;;;;;;;;;;;;;19.50;38.62;103323.19;7256709;19;153661;-74
2023/01/22 09:27:57;;;;;;;;;;;;;;;19.47;38.73;103323.69;7257838;19;153942;-75
2023/01/22 09:30:25;;;;;;;;;;;;;;;19.44;38.71;103324.16;7257910;19;152385;-74
2023/01/22 09:32:52;;;;;;;;;;;;;;;19.42;38.34;103326.34;7253987;19;154418;-75
2023/01/22 09:35:19;;;;;;;;;;;;;;;19.39;38.37;103325.97;7256185;19;153342;-76
2023/01/22 09:37:46;;;;;;;;;;;;;;;19.38;38.72;103321.47;7253991;19;154445;-76
2023/01/22 09:40:20;;;;;;;;;;;;;;;19.35;38.63;103319.97;7251929;19;153432;-77
2023/01/22 09:42:48;;;;;;;;;;;;;;;19.31;38.77;103326.31;7258983;19;153640;-76
2023/01/22 09:45:24;;;;;;;;;;;;;;;19.28;38.63;103324.88;7253444;19;155548;-76
2023/01/22 09:47:53;;;;;;;;;;;;;;;19.29;38.59;103322.91;7252986;19;154046;-76
2023/01/22 09:50:23;;;;;;;;;;;;;;;19.31;38.84;103317.91;7252663;19;154559;-77
2023/01/22 09:52:51;;;;;;;;;;;;;;;19.32;38.93;103325.22;7253088;19;154024;-77
2023/01/22 09:55:20;;;;;;;;;;;;;;;19.32;39.11;103317.66;7254128;19;155316;-76
2023/01/22 09:57:48;;;;;;;;;;;;;;;19.33;39.02;103322.19;7254662;19;154343;-76
2023/01/22 10:00:19;;;;;;;;;;;;;;;19.34;38.68;103328.66;7252430;19;154199;-77
2023/01/22 10:02:50;;;;;;;;;;;;;;;19.29;38.77;103326.56;7254560;19;153630;-76
2023/01/22 10:05:18;;;;;;;;;;;;;;;19.30;38.91;103319.03;7260473;19;154355;-77
2023/01/22 10:07:50;;;;;;;;;;;;;;;19.28;39.24;103326.81;7257545;19;153616;-76
2023/01/22 10:10:19;;;;;;;;;;;;;;;19.28;39.42;103336.06;7261114;19;153056;-73
2023/01/22 10:12:49;;;;;;;;;;;;;;;19.25;38.69;103330.09;7252807;19;153791;-75
2023/01/22 10:15:19;;;;;;;;;;;;;;;19.19;37.00;103326.31;7256658;19;154960;-75
2023/01/22 10:17:47;;;;;;;;;;;;;;;19.13;37.09;103323.59;7257783;19;154288;-74
2023/01/22 10:20:14;;;;;;;;;;;;;;;19.09;36.99;103324.09;7255457;19;154901;-75
2023/01/22 10:22:43;;;;;;;;;;;;;;;19.06;36.49;103330.19;7255971;19;154068;-75
2023/01/22 10:25:12;;;;;;;;;;;;;;;19.03;36.51;103325.06;7257051;19;153468;-75
2023/01/22 10:27:39;;;;;;;;;;;;;;;19.03;36.91;103321.41;7269839;19;154229;-76
2023/01/22 10:30:17;;;;;;;;;;;;;;;18.99;36.70;103329.44;7263413;19;155644;-76
2023/01/22 10:32:56;;;;;;;;;;;;;;;19.00;36.44;103319.09;7261794;19;155722;-76
2023/01/22 10:35:23;;;;;;;;;;;;;;;19.00;36.33;103322.75;7263562;19;152523;-75
2023/01/22 10:37:52;;;;;;;;;;;;;;;19.01;36.32;103313.25;7262122;19;153195;-75
2023/01/22 10:40:21;;;;;;;;;;;;;;;19.02;36.36;103314.97;7261991;19;154128;-75
2023/01/22 10:42:52;;;;;;;;;;;;;;;19.05;36.41;103325.69;7262068;19;153252;-75
2023/01/22 10:45:19;;;;;;;;;;;;;;;19.09;36.54;103321.28;7263806;19;155577;-75
2023/01/22 10:47:46;;;;;;;;;;;;;;;19.09;36.15;103324.09;7273384;19;155994;-75
2023/01/22 10:50:14;;;;;;;;;;;;;;;19.13;35.90;103327.25;7261550;19;154260;-74
2023/01/22 10:52:41;;;;;;;;;;;;;;;19.13;35.92;103332.88;7262902;19;153500;-75
2023/01/22 10:55:11;;;;;;;;;;;;;;;19.17;35.93;103333.28;7257342;19;154608;-75
2023/01/22 10:57:39;;;;;;;;;;;;;;;19.19;36.04;103336.66;7260773;19;153531;-75
2023/01/22 11:00:19;;;;;;;;;;;;;;;19.22;35.73;103330.56;7258521;19;154068;-75
2023/01/22 11:02:48;;;;;;;;;;;;;;;19.24;35.85;103328.38;7258478;19;154180;-74
2023/01/22 11:05:17;;;;;;;;;;;;;;;19.27;36.00;103331.56;7260066;19;154281;-75
2023/01/22 11:07:46;;;;;;;;;;;;;;;19.30;35.91;103330.22;7259340;19;154083;-76
2023/01/22 11:10:16;;;;;;;;;;;;;;;19.31;35.74;103326.31;7265068;19;153562;-78
2023/01/22 11:12:47;;;;;;;;;;;;;;;18.98;34.14;103324.09;7256764;19;153607;-76
2023/01/22 11:15:17;;;;;;;;;;;;;;;19.14;34.67;103323.38;7261309;19;152251;-75
2023/01/22 11:17:48;;;;;;;;;;;;;;;19.28;34.94;103318.41;7256909;19;154765;-75
2023/01/22 11:20:20;;;;;;;;;;;;;;;19.36;34.82;103320.84;7255172;19;154137;-77
2023/01/22 11:22:58;;;;;;;;;;;;;;;19.42;35.21;103325.47;7258165;19;153951;-77
2023/01/22 11:25:26;;;;;;;;;;;;;;;19.46;35.41;103321.13;7257048;19;154423;-76
2023/01/22 11:27:54;;;;;;;;;;;;;;;19.51;35.54;103310.03;7255681;19;155321;-75
2023/01/22 11:30:24;;;;;;;;;;;;;;;19.56;35.42;103309.31;7256924;19;153616;-75
2023/01/22 11:32:58;;;;;;;;;;;;;;;19.60;35.62;103319.78;7263219;19;154172;-75
2023/01/22 11:35:28;;;;;;;;;;;;;;;19.65;35.81;103319.06;7256449;19;152538;-75
2023/01/22 11:37:58;;;;;;;;;;;;;;;19.68;35.54;103325.03;7254151;19;154351;-76
2023/01/22 11:40:28;;;;;;;;;;;;;;;19.73;35.73;103313.91;7256866;19;154383;-76
2023/01/22 11:42:56;;;;;;;;;;;;;;;19.75;35.90;103317.34;7262012;19;153981;-77
2023/01/22 11:45:26;;;;;;;;;;;;;;;19.82;35.94;103306.84;7259648;19;154694;-79
2023/01/22 11:47:56;;;;;;;;;;;;;;;19.86;36.06;103310.00;7255507;19;155474;-75
2023/01/22 11:50:24;;;;;;;;;;;;;;;19.92;35.85;103311.81;7259115;19;154927;-76
2023/01/22 11:53:01;;;;;;;;;;;;;;;19.96;35.94;103316.69;7258351;19;154340;-75
2023/01/22 11:55:38;;;;;;;;;;;;;;;20.01;36.05;103323.50;7261649;19;154921;-75
2023/01/22 11:58:08;;;;;;;;;;;;;;;20.05;36.15;103330.34;7257724;19;154150;-75
2023/01/22 12:00:35;;;;;;;;;;;;;;;20.08;35.70;103329.88;7257210;19;154896;-76
2023/01/22 12:03:05;;;;;;;;;;;;;;;20.13;35.88;103324.34;7258999;19;154094;-76
2023/01/22 12:05:33;;;;;;;;;;;;;;;20.17;36.02;103322.75;7258307;19;154876;-76
2023/01/22 12:08:01;;;;;;;;;;;;;;;20.18;35.89;103308.47;7259574;19;153908;-76
2023/01/22 12:10:32;;;;;;;;;;;;;;;20.22;35.93;103312.47;7255654;19;153553;-75
2023/01/22 12:13:02;;;;;;;;;;;;;;;20.26;35.58;103307.25;7257084;19;155470;-76
2023/01/22 12:15:29;;;;;;;;;;;;;;;20.29;35.82;103312.34;7255809;19;155996;-76
2023/01/22 12:17:59;;;;;;;;;;;;;;;20.32;35.73;103314.69;7261773;19;154073;-75
2023/01/22 12:20:26;;;;;;;;;;;;;;;20.37;35.60;103295.13;7245213;19;155949;-76
2023/01/22 12:22:56;;;;;;;;;;;;;;;20.40;35.36;103300.22;7256119;19;152947;-76
2023/01/22 12:25:24;;;;;;;;;;;;;;;20.44;35.53;103303.41;7256062;19;153632;-75
2023/01/22 12:27:54;;;;;;;;;;;;;;;20.48;35.82;103302.66;7258993;19;156486;-76
2023/01/22 12:30:26;;;;;;;;;;;;;;;20.50;35.91;103297.63;7257689;19;153942;-76
2023/01/22 12:32:57;;;;;;;;;;;;;;;20.53;35.64;103302.78;7255696;19;153741;-76
2023/01/22 12:35:25;;;;;;;;;;;;;;;20.56;35.65;103301.41;7251996;19;155459;-76
2023/01/22 12:37:55;;;;;;;;;;;;;;;20.59;35.60;103307.34;7256701;19;153367;-76
2023/01/22 12:40:25;;;;;;;;;;;;;;;20.63;35.42;103288.03;7256253;19;156242;-76
2023/01/22 12:42:53;;;;;;;;;;;;;;;20.67;35.34;103294.88;7258446;19;156885;-76
2023/01/22 12:45:25;;;;;;;;;;;;;;;20.68;35.46;103305.84;7256044;19;153700;-76
2023/01/22 12:47:55;;;;;;;;;;;;;;;20.72;35.28;103300.56;7256834;19;154228;-76